VIR77N EGCC-TBPB
Flight info
| Callsign | VIR77N |
|---|---|
| Flight time | N/A |
| Altitude | 38000 |
| Route | EKLAD UY53 WAL L10 PENIL M144 BAGSO DCT CRK/M085F380 DCT GUNSO DCT OMOKO DCT 45N017W 40N023W 35N030W/M085F400 28N040W 2733N04048W DCT GLAAS/N0491F400 DCT BGI |
| Aircraft | B789/H-SDE1E2E3FGHIJ2J3J4J5M1RWXY/LB1D1 |
Departure
| Time | 2026-05-04 07:58 |
|---|---|
| Airport | Manchester Airport (EGCC) |
Arrival
| Time | N/A |
|---|---|
| Airport | Grantley Adams International Airport (TBPB) |
| Time | Latitude | Longitude | Altitude | Speed | Heading |
|---|---|---|---|---|---|
| 2026-05-04 07:28 | 53.36805 | -2.28682 | 260 ft | 0 kts | 315° |
| 2026-05-04 07:46 | 53.36797 | -2.28668 | 261 ft | 2 kts | 315° |
| 2026-05-04 07:46 | 53.36785 | -2.28649 | 262 ft | 2 kts | 315° |
| 2026-05-04 07:46 | 53.36774 | -2.28630 | 262 ft | 2 kts | 316° |
| 2026-05-04 07:46 | 53.36762 | -2.28611 | 265 ft | 2 kts | 310° |
| 2026-05-04 07:47 | 53.36756 | -2.28586 | 267 ft | 2 kts | 277° |
| 2026-05-04 07:47 | 53.36762 | -2.28563 | 264 ft | 2 kts | 225° |
| 2026-05-04 07:47 | 53.36769 | -2.28551 | 266 ft | 1 kts | 230° |
| 2026-05-04 07:49 | 53.36769 | -2.28550 | 266 ft | 0 kts | 230° |
| 2026-05-04 07:49 | 53.36769 | -2.28551 | 266 ft | 0 kts | 230° |
| 2026-05-04 07:50 | 53.36766 | -2.28557 | 266 ft | 1 kts | 227° |
| 2026-05-04 07:50 | 53.36750 | -2.28583 | 267 ft | 7 kts | 225° |
| 2026-05-04 07:50 | 53.36723 | -2.28627 | 261 ft | 5 kts | 224° |
| 2026-05-04 07:50 | 53.36690 | -2.28680 | 260 ft | 8 kts | 224° |
| 2026-05-04 07:51 | 53.36642 | -2.28760 | 260 ft | 11 kts | 223° |
| 2026-05-04 07:51 | 53.36600 | -2.28771 | 260 ft | 8 kts | 164° |
| 2026-05-04 07:51 | 53.36555 | -2.28715 | 260 ft | 8 kts | 140° |
| 2026-05-04 07:51 | 53.36513 | -2.28645 | 260 ft | 9 kts | 134° |
| 2026-05-04 07:52 | 53.36467 | -2.28565 | 260 ft | 10 kts | 134° |
| 2026-05-04 07:52 | 53.36405 | -2.28493 | 260 ft | 12 kts | 160° |
| 2026-05-04 07:52 | 53.36328 | -2.28442 | 260 ft | 12 kts | 143° |
| 2026-05-04 07:52 | 53.36269 | -2.28343 | 260 ft | 12 kts | 134° |
| 2026-05-04 07:53 | 53.36207 | -2.28237 | 260 ft | 13 kts | 134° |
| 2026-05-04 07:54 | 53.35588 | -2.27973 | 244 ft | 17 kts | 230° |
| 2026-05-04 07:55 | 53.35494 | -2.28121 | 239 ft | 19 kts | 208° |
| 2026-05-04 07:55 | 53.35370 | -2.28168 | 241 ft | 18 kts | 189° |
| 2026-05-04 07:55 | 53.35251 | -2.28266 | 237 ft | 20 kts | 221° |
| 2026-05-04 07:55 | 53.35161 | -2.28445 | 236 ft | 22 kts | 231° |
| 2026-05-04 07:56 | 53.35082 | -2.28611 | 239 ft | 16 kts | 231° |
| 2026-05-04 07:56 | 53.35008 | -2.28750 | 237 ft | 17 kts | 226° |
| 2026-05-04 07:56 | 53.34926 | -2.28896 | 234 ft | 18 kts | 226° |
| 2026-05-04 07:56 | 53.34829 | -2.29049 | 224 ft | 18 kts | 209° |
| 2026-05-04 07:57 | 53.34714 | -2.29046 | 223 ft | 16 kts | 154° |
| 2026-05-04 07:57 | 53.34681 | -2.28937 | 225 ft | 6 kts | 64° |
| 2026-05-04 07:57 | 53.34686 | -2.28928 | 225 ft | 0 kts | 50° |
| 2026-05-04 07:57 | 53.34722 | -2.28850 | 227 ft | 15 kts | 52° |
| 2026-05-04 07:58 | 53.34796 | -2.28692 | 237 ft | 28 kts | 51° |
| 2026-05-04 07:58 | 53.35086 | -2.28091 | 239 ft | 106 kts | 51° |
| 2026-05-04 07:58 | 53.35697 | -2.26825 | 275 ft | 171 kts | 51° |
| 2026-05-04 07:58 | 53.36462 | -2.25155 | 942 ft | 184 kts | 53° |
| 2026-05-04 07:59 | 53.37225 | -2.23519 | 1880 ft | 181 kts | 50° |
| 2026-05-04 07:59 | 53.38104 | -2.21779 | 2246 ft | 211 kts | 46° |
| 2026-05-04 07:59 | 53.39491 | -2.20634 | 2501 ft | 242 kts | 5° |
| 2026-05-04 07:59 | 53.41150 | -2.21382 | 3065 ft | 259 kts | 324° |
| 2026-05-04 08:00 | 53.42328 | -2.23643 | 4163 ft | 258 kts | 307° |
| 2026-05-04 08:00 | 53.43513 | -2.26015 | 4861 ft | 274 kts | 302° |
| 2026-05-04 08:00 | 53.44084 | -2.29029 | 5658 ft | 265 kts | 279° |
| 2026-05-04 08:02 | 53.47231 | -2.51375 | 10959 ft | 344 kts | 287° |
| 2026-05-04 08:02 | 53.47986 | -2.55400 | 11242 ft | 368 kts | 287° |
| 2026-05-04 08:02 | 53.48638 | -2.59496 | 12174 ft | 369 kts | 282° |
| 2026-05-04 08:03 | 53.49129 | -2.63825 | 12965 ft | 375 kts | 280° |
| 2026-05-04 08:03 | 53.49601 | -2.68096 | 13757 ft | 380 kts | 281° |
| 2026-05-04 08:03 | 53.50164 | -2.72455 | 14530 ft | 384 kts | 283° |
| 2026-05-04 08:03 | 53.50751 | -2.76863 | 15286 ft | 389 kts | 282° |
| 2026-05-04 08:04 | 53.51309 | -2.81324 | 16014 ft | 393 kts | 281° |
| 2026-05-04 08:04 | 53.51858 | -2.85854 | 16716 ft | 397 kts | 281° |
| 2026-05-04 08:04 | 53.52424 | -2.90418 | 17401 ft | 401 kts | 282° |
| 2026-05-04 08:04 | 53.53002 | -2.95030 | 18062 ft | 405 kts | 282° |
| 2026-05-04 08:05 | 53.53580 | -2.99691 | 18696 ft | 409 kts | 282° |
| 2026-05-04 08:05 | 53.54157 | -3.04395 | 19316 ft | 413 kts | 281° |
| 2026-05-04 08:05 | 53.54739 | -3.09150 | 19927 ft | 417 kts | 281° |
| 2026-05-04 08:05 | 53.55326 | -3.13949 | 20514 ft | 421 kts | 281° |
| 2026-05-04 08:06 | 53.55916 | -3.18783 | 21063 ft | 424 kts | 281° |
| 2026-05-04 08:06 | 53.56508 | -3.23667 | 21614 ft | 428 kts | 281° |
| 2026-05-04 08:06 | 53.57103 | -3.28589 | 22123 ft | 431 kts | 281° |
| 2026-05-04 08:06 | 53.57702 | -3.33556 | 22632 ft | 435 kts | 281° |
| 2026-05-04 08:08 | 53.61743 | -3.69398 | 25707 ft | 456 kts | 274° |
| 2026-05-04 08:08 | 53.61960 | -3.74736 | 26108 ft | 458 kts | 274° |
| 2026-05-04 08:10 | 53.63706 | -4.18602 | 29059 ft | 480 kts | 274° |
| 2026-05-04 08:11 | 53.63912 | -4.24226 | 29398 ft | 482 kts | 274° |
| 2026-05-04 08:11 | 53.64334 | -4.35563 | 30045 ft | 487 kts | 274° |
| 2026-05-04 08:11 | 53.64550 | -4.41278 | 30357 ft | 489 kts | 274° |
| 2026-05-04 08:12 | 53.64763 | -4.47016 | 30663 ft | 492 kts | 273° |
| 2026-05-04 08:12 | 53.64968 | -4.52778 | 30956 ft | 494 kts | 273° |
| 2026-05-04 08:12 | 53.65168 | -4.58565 | 31248 ft | 496 kts | 273° |
| 2026-05-04 08:12 | 53.65370 | -4.64380 | 31532 ft | 498 kts | 273° |
| 2026-05-04 08:13 | 53.65571 | -4.70214 | 31929 ft | 497 kts | 273° |
| 2026-05-04 08:13 | 53.65768 | -4.76028 | 32350 ft | 496 kts | 273° |
| 2026-05-04 08:13 | 53.65960 | -4.81836 | 32751 ft | 496 kts | 273° |
| 2026-05-04 08:13 | 53.66149 | -4.87623 | 33168 ft | 495 kts | 273° |
| 2026-05-04 08:14 | 53.66339 | -4.93493 | 33554 ft | 494 kts | 273° |
| 2026-05-04 08:14 | 53.66521 | -4.99186 | 33920 ft | 493 kts | 273° |
| 2026-05-04 08:14 | 53.66704 | -5.05035 | 34296 ft | 492 kts | 273° |
| 2026-05-04 08:16 | 53.67275 | -5.45063 | 36661 ft | 487 kts | 256° |
| 2026-05-04 08:16 | 53.66215 | -5.50479 | 36915 ft | 487 kts | 245° |
| 2026-05-04 08:16 | 53.64543 | -5.55441 | 37198 ft | 488 kts | 233° |
| 2026-05-04 08:17 | 53.62309 | -5.59829 | 37463 ft | 488 kts | 226° |
| 2026-05-04 08:17 | 53.59984 | -5.63901 | 37687 ft | 488 kts | 226° |
| 2026-05-04 08:17 | 53.57576 | -5.68031 | 37953 ft | 488 kts | 225° |
| 2026-05-04 08:17 | 53.55176 | -5.72119 | 38001 ft | 493 kts | 226° |
| 2026-05-04 08:19 | 53.36147 | -6.04615 | 37993 ft | 487 kts | 225° |
| 2026-05-04 08:20 | 53.31384 | -6.12675 | 37995 ft | 487 kts | 225° |
| 2026-05-04 08:20 | 53.26617 | -6.20716 | 37993 ft | 487 kts | 225° |
| 2026-05-04 08:21 | 53.21820 | -6.28779 | 37998 ft | 492 kts | 225° |
| 2026-05-04 08:21 | 53.16986 | -6.36877 | 38003 ft | 493 kts | 225° |
| 2026-05-04 08:22 | 53.12153 | -6.44945 | 38003 ft | 491 kts | 225° |
| 2026-05-04 08:24 | 52.92844 | -6.76914 | 38002 ft | 489 kts | 225° |
| 2026-05-04 08:24 | 52.88021 | -6.84834 | 38002 ft | 488 kts | 225° |
| 2026-05-04 08:25 | 52.83198 | -6.92726 | 38001 ft | 487 kts | 225° |
| 2026-05-04 08:25 | 52.78380 | -7.00584 | 37998 ft | 487 kts | 225° |
| 2026-05-04 08:27 | 52.58948 | -7.32019 | 38005 ft | 487 kts | 224° |
| 2026-05-04 08:28 | 52.54095 | -7.39806 | 38005 ft | 488 kts | 224° |
| 2026-05-04 08:28 | 52.49226 | -7.47592 | 38006 ft | 489 kts | 224° |
| 2026-05-04 08:29 | 52.44348 | -7.55368 | 38006 ft | 490 kts | 224° |
| 2026-05-04 08:31 | 52.24780 | -7.86306 | 38006 ft | 488 kts | 224° |
| 2026-05-04 08:33 | 52.05957 | -8.15692 | 38006 ft | 488 kts | 224° |
| 2026-05-04 08:35 | 51.86275 | -8.46037 | 38005 ft | 487 kts | 224° |
| 2026-05-04 08:35 | 51.81125 | -8.53165 | 37999 ft | 489 kts | 218° |
| 2026-05-04 08:37 | 51.62340 | -8.76782 | 38010 ft | 488 kts | 218° |
| 2026-05-04 08:38 | 51.56981 | -8.83482 | 38011 ft | 488 kts | 218° |
| 2026-05-04 08:38 | 51.51615 | -8.90164 | 38012 ft | 487 kts | 218° |
| 2026-05-04 08:40 | 51.30199 | -9.16645 | 38008 ft | 489 kts | 218° |
| 2026-05-04 08:41 | 51.24801 | -9.23269 | 38009 ft | 490 kts | 218° |
| 2026-05-04 08:41 | 51.19394 | -9.29884 | 38008 ft | 490 kts | 218° |
| 2026-05-04 08:42 | 51.13943 | -9.36532 | 38010 ft | 490 kts | 217° |
| 2026-05-04 08:42 | 51.08533 | -9.43110 | 38011 ft | 489 kts | 217° |
| 2026-05-04 08:43 | 51.03122 | -9.49669 | 38011 ft | 489 kts | 217° |
| 2026-05-04 08:43 | 50.97707 | -9.56214 | 38010 ft | 489 kts | 217° |
| 2026-05-04 08:44 | 50.92292 | -9.62739 | 38010 ft | 489 kts | 217° |
| 2026-05-04 08:46 | 50.70628 | -9.88649 | 38007 ft | 488 kts | 217° |
| 2026-05-04 08:46 | 50.65243 | -9.95042 | 38006 ft | 487 kts | 217° |
| 2026-05-04 08:47 | 50.59793 | -10.01494 | 38005 ft | 487 kts | 217° |
| 2026-05-04 08:47 | 50.54406 | -10.07851 | 38006 ft | 488 kts | 217° |
| 2026-05-04 08:48 | 50.48964 | -10.14254 | 38010 ft | 489 kts | 217° |
| 2026-05-04 08:48 | 50.43504 | -10.20660 | 38010 ft | 490 kts | 217° |
| 2026-05-04 08:49 | 50.38039 | -10.27053 | 38010 ft | 490 kts | 217° |
| 2026-05-04 08:50 | 50.18883 | -10.49314 | 38011 ft | 490 kts | 217° |
| 2026-05-04 08:51 | 50.13408 | -10.55634 | 38011 ft | 490 kts | 217° |
| 2026-05-04 08:51 | 50.07928 | -10.61942 | 38011 ft | 489 kts | 217° |
| 2026-05-04 08:52 | 50.02453 | -10.68226 | 38011 ft | 489 kts | 217° |
| 2026-05-04 08:52 | 49.96974 | -10.74497 | 38010 ft | 489 kts | 216° |
| 2026-05-04 08:54 | 49.75045 | -10.99412 | 38008 ft | 488 kts | 216° |
| 2026-05-04 08:55 | 49.69561 | -11.05599 | 38007 ft | 488 kts | 216° |
| 2026-05-04 08:55 | 49.64039 | -11.11810 | 38007 ft | 488 kts | 216° |
| 2026-05-04 09:01 | 49.06164 | -11.75858 | 38008 ft | 489 kts | 216° |
| 2026-05-04 09:01 | 49.00634 | -11.81880 | 38007 ft | 488 kts | 216° |
| 2026-05-04 09:02 | 48.95104 | -11.87883 | 38006 ft | 488 kts | 216° |
| 2026-05-04 09:02 | 48.89578 | -11.93866 | 38005 ft | 488 kts | 216° |
| 2026-05-04 09:03 | 48.84066 | -11.99869 | 38004 ft | 487 kts | 220° |
| 2026-05-04 09:03 | 48.79113 | -12.06884 | 38009 ft | 489 kts | 224° |
| 2026-05-04 09:04 | 48.74172 | -12.13990 | 38008 ft | 490 kts | 223° |
| 2026-05-04 09:04 | 48.69214 | -12.21083 | 38010 ft | 490 kts | 223° |
| 2026-05-04 09:05 | 48.64256 | -12.28167 | 38010 ft | 490 kts | 223° |
| 2026-05-04 09:05 | 48.59295 | -12.35229 | 38012 ft | 490 kts | 223° |
| 2026-05-04 09:06 | 48.54330 | -12.42280 | 38009 ft | 490 kts | 223° |
| 2026-05-04 09:08 | 48.34496 | -12.70244 | 38006 ft | 488 kts | 223° |
| 2026-05-04 09:08 | 48.29523 | -12.77207 | 38006 ft | 488 kts | 223° |
| 2026-05-04 09:09 | 48.24550 | -12.84149 | 38005 ft | 488 kts | 223° |
| 2026-05-04 09:09 | 48.19580 | -12.91070 | 38004 ft | 487 kts | 223° |
| 2026-05-04 09:10 | 48.14608 | -12.97973 | 38003 ft | 487 kts | 223° |
| 2026-05-04 09:10 | 48.09635 | -13.04859 | 38002 ft | 487 kts | 223° |
| 2026-05-04 09:11 | 48.04659 | -13.11729 | 38002 ft | 488 kts | 223° |
| 2026-05-04 09:11 | 47.99666 | -13.18606 | 38005 ft | 489 kts | 223° |
| 2026-05-04 09:12 | 47.94653 | -13.25489 | 38010 ft | 490 kts | 223° |
| 2026-05-04 09:14 | 47.75400 | -13.51752 | 38011 ft | 489 kts | 223° |
| 2026-05-04 09:14 | 47.70373 | -13.58564 | 38010 ft | 489 kts | 223° |
| 2026-05-04 09:15 | 47.65344 | -13.65360 | 38011 ft | 489 kts | 222° |
| 2026-05-04 09:15 | 47.60313 | -13.72141 | 38009 ft | 488 kts | 222° |
| 2026-05-04 09:17 | 47.37675 | -14.02425 | 38004 ft | 487 kts | 222° |
| 2026-05-04 09:18 | 47.32641 | -14.09109 | 38003 ft | 487 kts | 222° |
| 2026-05-04 09:18 | 47.27598 | -14.15787 | 38005 ft | 488 kts | 222° |
| 2026-05-04 09:19 | 47.22546 | -14.22461 | 38008 ft | 489 kts | 222° |
| 2026-05-04 09:19 | 47.17479 | -14.29134 | 38010 ft | 489 kts | 222° |
| 2026-05-04 09:20 | 47.12403 | -14.35803 | 38010 ft | 490 kts | 222° |
| 2026-05-04 09:20 | 47.07322 | -14.42461 | 38012 ft | 490 kts | 222° |
| 2026-05-04 09:21 | 47.02228 | -14.49116 | 38010 ft | 490 kts | 222° |
| 2026-05-04 09:21 | 46.97133 | -14.55756 | 38012 ft | 490 kts | 221° |
| 2026-05-04 09:22 | 46.92035 | -14.62383 | 38009 ft | 490 kts | 221° |
| 2026-05-04 09:22 | 46.86933 | -14.68997 | 38009 ft | 490 kts | 221° |
| 2026-05-04 09:23 | 46.81829 | -14.75596 | 38009 ft | 490 kts | 221° |
| 2026-05-04 09:23 | 46.76759 | -14.82134 | 38009 ft | 490 kts | 221° |
| 2026-05-04 09:25 | 46.56326 | -15.08312 | 38007 ft | 488 kts | 221° |
| 2026-05-04 09:26 | 46.51220 | -15.14810 | 38006 ft | 488 kts | 221° |
| 2026-05-04 09:26 | 46.46077 | -15.21339 | 38005 ft | 488 kts | 221° |
| 2026-05-04 09:27 | 46.40968 | -15.27808 | 38003 ft | 487 kts | 221° |
| 2026-05-04 09:27 | 46.35895 | -15.34214 | 38002 ft | 487 kts | 221° |
| 2026-05-04 09:28 | 46.30787 | -15.40648 | 38001 ft | 487 kts | 221° |
| 2026-05-04 09:28 | 46.25674 | -15.47072 | 38001 ft | 487 kts | 221° |
| 2026-05-04 09:29 | 46.20544 | -15.53502 | 38006 ft | 489 kts | 221° |
| 2026-05-04 09:29 | 46.15391 | -15.59942 | 38011 ft | 491 kts | 221° |
| 2026-05-04 09:30 | 46.10227 | -15.66380 | 38010 ft | 490 kts | 221° |
| 2026-05-04 09:30 | 46.05069 | -15.72795 | 38011 ft | 490 kts | 221° |
| 2026-05-04 09:31 | 45.99911 | -15.79193 | 38010 ft | 489 kts | 221° |
| 2026-05-04 09:31 | 45.94756 | -15.85571 | 38009 ft | 489 kts | 221° |
| 2026-05-04 09:32 | 45.89568 | -15.91973 | 38007 ft | 488 kts | 221° |
| 2026-05-04 09:34 | 45.68962 | -16.17242 | 38003 ft | 487 kts | 220° |
| 2026-05-04 09:34 | 45.63803 | -16.23529 | 38004 ft | 488 kts | 220° |
| 2026-05-04 09:35 | 45.58626 | -16.29821 | 38008 ft | 489 kts | 220° |
| 2026-05-04 09:35 | 45.53433 | -16.36116 | 38012 ft | 490 kts | 220° |
| 2026-05-04 09:37 | 45.32644 | -16.61165 | 38010 ft | 490 kts | 220° |
| 2026-05-04 09:38 | 45.27403 | -16.67441 | 38010 ft | 490 kts | 220° |
| 2026-05-04 09:38 | 45.22193 | -16.73663 | 38009 ft | 489 kts | 220° |
| 2026-05-04 09:39 | 45.17017 | -16.79831 | 38009 ft | 489 kts | 220° |
| 2026-05-04 09:39 | 45.11774 | -16.86062 | 38008 ft | 489 kts | 220° |
| 2026-05-04 09:40 | 45.06593 | -16.92204 | 38007 ft | 488 kts | 220° |
| 2026-05-04 09:40 | 45.01355 | -16.98399 | 38005 ft | 488 kts | 220° |
| 2026-05-04 09:42 | 44.81555 | -17.24690 | 38012 ft | 491 kts | 224° |
| 2026-05-04 09:43 | 44.76563 | -17.31341 | 38010 ft | 491 kts | 223° |
| 2026-05-04 09:43 | 44.71599 | -17.37927 | 38010 ft | 490 kts | 223° |
| 2026-05-04 09:44 | 44.66671 | -17.44455 | 38010 ft | 490 kts | 223° |
| 2026-05-04 09:46 | 44.46808 | -17.70600 | 38008 ft | 489 kts | 223° |
| 2026-05-04 09:46 | 44.41840 | -17.77100 | 38007 ft | 489 kts | 223° |
| 2026-05-04 09:47 | 44.36874 | -17.83581 | 38006 ft | 488 kts | 223° |
| 2026-05-04 09:49 | 44.16982 | -18.09383 | 38008 ft | 490 kts | 223° |
| 2026-05-04 09:51 | 43.99441 | -18.31931 | 38011 ft | 490 kts | 223° |
| 2026-05-04 09:51 | 43.94426 | -18.38342 | 38011 ft | 490 kts | 223° |
| 2026-05-04 09:52 | 43.89410 | -18.44740 | 38010 ft | 490 kts | 223° |
| 2026-05-04 09:52 | 43.84392 | -18.51124 | 38009 ft | 489 kts | 223° |
| 2026-05-04 09:53 | 43.79376 | -18.57491 | 38007 ft | 489 kts | 223° |
| 2026-05-04 09:53 | 43.74358 | -18.63845 | 38006 ft | 489 kts | 223° |
| 2026-05-04 09:54 | 43.69342 | -18.70182 | 38005 ft | 488 kts | 223° |
| 2026-05-04 09:54 | 43.64361 | -18.76460 | 38003 ft | 488 kts | 223° |
| 2026-05-04 09:55 | 43.59349 | -18.82761 | 38002 ft | 487 kts | 222° |
| 2026-05-04 09:55 | 43.54334 | -18.89052 | 38000 ft | 487 kts | 222° |
| 2026-05-04 09:56 | 43.50122 | -18.94324 | 38003 ft | 489 kts | 222° |
| 2026-05-04 09:56 | 43.44256 | -19.01650 | 38008 ft | 491 kts | 222° |
| 2026-05-04 09:57 | 43.40016 | -19.06932 | 38011 ft | 491 kts | 222° |
| 2026-05-04 09:57 | 43.34949 | -19.13230 | 38009 ft | 491 kts | 222° |
| 2026-05-04 09:58 | 43.29880 | -19.19517 | 38010 ft | 490 kts | 222° |
| 2026-05-04 09:58 | 43.24818 | -19.25780 | 38009 ft | 490 kts | 222° |
| 2026-05-04 10:00 | 43.04565 | -19.50694 | 38003 ft | 488 kts | 222° |
| 2026-05-04 10:04 | 42.69031 | -19.93853 | 38009 ft | 491 kts | 221° |
| 2026-05-04 10:04 | 42.63920 | -20.00004 | 38011 ft | 491 kts | 221° |
| 2026-05-04 10:05 | 42.58838 | -20.06106 | 38012 ft | 491 kts | 221° |
| 2026-05-04 10:05 | 42.53722 | -20.12234 | 38010 ft | 491 kts | 221° |
| 2026-05-04 10:06 | 42.48604 | -20.18352 | 38009 ft | 490 kts | 221° |
| 2026-05-04 10:06 | 42.43485 | -20.24457 | 38008 ft | 490 kts | 221° |
| 2026-05-04 10:08 | 42.25575 | -20.45709 | 38004 ft | 489 kts | 221° |
| 2026-05-04 10:08 | 42.20462 | -20.51745 | 38003 ft | 488 kts | 221° |
| 2026-05-04 10:09 | 42.15347 | -20.57770 | 38001 ft | 488 kts | 221° |
| 2026-05-04 10:09 | 42.10236 | -20.63776 | 37999 ft | 487 kts | 221° |
| 2026-05-04 10:10 | 42.05120 | -20.69776 | 37999 ft | 488 kts | 221° |
| 2026-05-04 10:10 | 41.99991 | -20.75778 | 38002 ft | 489 kts | 221° |
| 2026-05-04 10:11 | 41.94847 | -20.81784 | 38005 ft | 490 kts | 221° |
| 2026-05-04 10:11 | 41.89693 | -20.87787 | 38008 ft | 491 kts | 221° |
| 2026-05-04 10:12 | 41.84530 | -20.93789 | 38010 ft | 491 kts | 221° |
| 2026-05-04 10:12 | 41.79362 | -20.99782 | 38011 ft | 491 kts | 221° |
| 2026-05-04 10:13 | 41.74195 | -21.05760 | 38010 ft | 491 kts | 221° |
| 2026-05-04 10:13 | 41.69024 | -21.11732 | 38009 ft | 491 kts | 221° |
| 2026-05-04 10:14 | 41.63854 | -21.17688 | 38008 ft | 490 kts | 221° |
| 2026-05-04 10:16 | 41.43198 | -21.41355 | 38002 ft | 488 kts | 220° |
| 2026-05-04 10:16 | 41.38038 | -21.47235 | 38000 ft | 488 kts | 220° |
| 2026-05-04 10:17 | 41.32881 | -21.53099 | 37998 ft | 488 kts | 220° |
| 2026-05-04 10:19 | 41.12121 | -21.76578 | 38009 ft | 491 kts | 220° |
| 2026-05-04 10:19 | 41.06913 | -21.82436 | 38010 ft | 491 kts | 220° |
| 2026-05-04 10:20 | 41.01705 | -21.88282 | 38010 ft | 491 kts | 220° |
| 2026-05-04 10:20 | 40.96494 | -21.94119 | 38010 ft | 490 kts | 220° |
| 2026-05-04 10:21 | 40.91283 | -21.99943 | 38009 ft | 490 kts | 220° |
| 2026-05-04 10:21 | 40.86073 | -22.05753 | 38008 ft | 490 kts | 220° |
| 2026-05-04 10:22 | 40.78264 | -22.14439 | 38006 ft | 489 kts | 220° |
| 2026-05-04 10:23 | 40.73058 | -22.20215 | 38004 ft | 489 kts | 220° |
| 2026-05-04 10:25 | 40.52243 | -22.43184 | 38001 ft | 489 kts | 220° |
| 2026-05-04 10:25 | 40.47014 | -22.48924 | 38004 ft | 490 kts | 220° |
| 2026-05-04 10:26 | 40.41778 | -22.54660 | 38008 ft | 491 kts | 220° |
| 2026-05-04 10:26 | 40.36528 | -22.60399 | 38010 ft | 491 kts | 220° |
| 2026-05-04 10:27 | 40.31281 | -22.66122 | 38011 ft | 491 kts | 220° |
| 2026-05-04 10:27 | 40.26030 | -22.71839 | 38011 ft | 491 kts | 220° |
| 2026-05-04 10:28 | 40.20775 | -22.77547 | 38011 ft | 491 kts | 220° |